sensor_id;sensor_type;location;lat;lon;timestamp;pressure;altitude;pressure_sealevel;temperature;humidity
55538;BME280;41383;51.418;7.286;2023-03-14T00:02:15;97397.63;;;10.80;77.07
55538;BME280;41383;51.418;7.286;2023-03-14T00:04:41;97388.03;;;10.73;77.10
55538;BME280;41383;51.418;7.286;2023-03-14T00:07:06;97381.78;;;10.73;77.04
55538;BME280;41383;51.418;7.286;2023-03-14T00:09:31;97371.47;;;10.88;76.56
55538;BME280;41383;51.418;7.286;2023-03-14T00:11:57;97363.78;;;10.90;76.39
55538;BME280;41383;51.418;7.286;2023-03-14T00:14:22;97363.13;;;10.93;76.15
55538;BME280;41383;51.418;7.286;2023-03-14T00:16:48;97348.06;;;10.86;76.28
55538;BME280;41383;51.418;7.286;2023-03-14T00:19:13;97345.06;;;10.79;75.74
55538;BME280;41383;51.418;7.286;2023-03-14T00:21:39;97342.47;;;10.83;76.34
55538;BME280;41383;51.418;7.286;2023-03-14T00:24:04;97326.59;;;10.85;76.20
55538;BME280;41383;51.418;7.286;2023-03-14T00:26:30;97325.31;;;10.82;75.64
55538;BME280;41383;51.418;7.286;2023-03-14T00:28:56;97337.16;;;10.86;75.74
55538;BME280;41383;51.418;7.286;2023-03-14T00:31:21;97345.47;;;10.90;75.65
55538;BME280;41383;51.418;7.286;2023-03-14T00:33:46;97367.13;;;10.86;75.36
55538;BME280;41383;51.418;7.286;2023-03-14T00:36:14;97383.81;;;10.94;75.49
55538;BME280;41383;51.418;7.286;2023-03-14T00:38:41;97392.34;;;10.83;75.48
55538;BME280;41383;51.418;7.286;2023-03-14T00:41:12;97389.28;;;10.85;76.02
55538;BME280;41383;51.418;7.286;2023-03-14T00:43:37;97392.00;;;10.94;75.62
55538;BME280;41383;51.418;7.286;2023-03-14T00:46:03;97393.25;;;10.96;75.67
55538;BME280;41383;51.418;7.286;2023-03-14T00:48:29;97382.06;;;10.80;75.42
55538;BME280;41383;51.418;7.286;2023-03-14T00:50:54;97372.59;;;10.86;75.52
55538;BME280;41383;51.418;7.286;2023-03-14T00:53:20;97370.81;;;10.91;75.51
55538;BME280;41383;51.418;7.286;2023-03-14T00:55:45;97366.03;;;10.88;76.00
55538;BME280;41383;51.418;7.286;2023-03-14T00:58:12;97354.47;;;10.91;75.57
55538;BME280;41383;51.418;7.286;2023-03-14T01:00:39;97353.50;;;10.86;75.65
55538;BME280;41383;51.418;7.286;2023-03-14T01:03:04;97358.00;;;10.82;76.11
55538;BME280;41383;51.418;7.286;2023-03-14T01:05:30;97379.81;;;10.91;77.26
55538;BME280;41383;51.418;7.286;2023-03-14T01:07:55;97394.09;;;10.79;79.16
55538;BME280;41383;51.418;7.286;2023-03-14T01:10:20;97410.44;;;10.88;80.45
55538;BME280;41383;51.418;7.286;2023-03-14T01:12:46;97441.41;;;10.83;81.97
55538;BME280;41383;51.418;7.286;2023-03-14T01:15:11;97437.41;;;10.36;84.89
55538;BME280;41383;51.418;7.286;2023-03-14T01:17:36;97452.75;;;10.23;84.94
55538;BME280;41383;51.418;7.286;2023-03-14T01:20:05;97440.09;;;10.01;86.05
55538;BME280;41383;51.418;7.286;2023-03-14T01:22:34;97423.59;;;9.88;86.41
55538;BME280;41383;51.418;7.286;2023-03-14T01:24:59;97431.13;;;9.91;85.69
55538;BME280;41383;51.418;7.286;2023-03-14T01:27:24;97429.69;;;10.03;85.47
55538;BME280;41383;51.418;7.286;2023-03-14T01:29:50;97423.94;;;10.04;85.47
55538;BME280;41383;51.418;7.286;2023-03-14T01:32:15;97422.94;;;9.91;85.41
55538;BME280;41383;51.418;7.286;2023-03-14T01:34:41;97429.34;;;9.78;86.54
55538;BME280;41383;51.418;7.286;2023-03-14T01:37:06;97417.16;;;9.75;87.19
55538;BME280;41383;51.418;7.286;2023-03-14T01:39:33;97403.03;;;9.64;87.41
55538;BME280;41383;51.418;7.286;2023-03-14T01:42:00;97400.78;;;9.66;87.67
55538;BME280;41383;51.418;7.286;2023-03-14T01:44:25;97394.88;;;9.64;87.84
55538;BME280;41383;51.418;7.286;2023-03-14T01:46:50;97388.94;;;9.62;87.97
55538;BME280;41383;51.418;7.286;2023-03-14T01:49:26;97385.78;;;9.69;88.20
55538;BME280;41383;51.418;7.286;2023-03-14T01:52:06;97397.16;;;9.80;87.50
55538;BME280;41383;51.418;7.286;2023-03-14T01:54:33;97388.31;;;9.56;88.57
55538;BME280;41383;51.418;7.286;2023-03-14T01:59:36;97369.94;;;9.80;87.84
55538;BME280;41383;51.418;7.286;2023-03-14T02:02:04;97379.38;;;9.83;87.18
55538;BME280;41383;51.418;7.286;2023-03-14T02:04:34;97370.25;;;9.78;87.72
55538;BME280;41383;51.418;7.286;2023-03-14T02:07:16;97368.66;;;9.77;87.67
55538;BME280;41383;51.418;7.286;2023-03-14T02:09:43;97369.28;;;9.65;87.67
55538;BME280;41383;51.418;7.286;2023-03-14T02:12:11;97356.28;;;9.44;88.48
55538;BME280;41383;51.418;7.286;2023-03-14T02:14:39;97352.25;;;9.42;89.50
55538;BME280;41383;51.418;7.286;2023-03-14T02:17:06;97359.44;;;9.38;89.17
55538;BME280;41383;51.418;7.286;2023-03-14T02:19:46;97376.44;;;9.43;89.47
55538;BME280;41383;51.418;7.286;2023-03-14T02:22:15;97368.09;;;9.40;89.64
55538;BME280;41383;51.418;7.286;2023-03-14T02:27:15;97365.44;;;9.57;88.91
55538;BME280;41383;51.418;7.286;2023-03-14T02:29:49;97364.31;;;9.50;88.83
55538;BME280;41383;51.418;7.286;2023-03-14T02:32:16;97360.28;;;9.56;89.24
55538;BME280;41383;51.418;7.286;2023-03-14T02:34:43;97356.63;;;9.52;88.84
55538;BME280;41383;51.418;7.286;2023-03-14T02:37:11;97355.97;;;9.55;88.77
55538;BME280;41383;51.418;7.286;2023-03-14T02:39:40;97358.06;;;9.49;89.20
55538;BME280;41383;51.418;7.286;2023-03-14T02:42:06;97366.25;;;9.67;88.77
55538;BME280;41383;51.418;7.286;2023-03-14T02:44:32;97374.84;;;9.60;88.63
55538;BME280;41383;51.418;7.286;2023-03-14T02:46:57;97360.47;;;9.60;88.84
55538;BME280;41383;51.418;7.286;2023-03-14T02:49:23;97362.09;;;9.69;88.42
55538;BME280;41383;51.418;7.286;2023-03-14T02:51:49;97355.69;;;9.65;88.23
55538;BME280;41383;51.418;7.286;2023-03-14T02:54:15;97356.16;;;9.67;87.83
55538;BME280;41383;51.418;7.286;2023-03-14T02:56:41;97362.56;;;9.72;87.85
55538;BME280;41383;51.418;7.286;2023-03-14T02:59:06;97360.97;;;9.71;87.86
55538;BME280;41383;51.418;7.286;2023-03-14T03:01:33;97358.09;;;9.76;88.08
55538;BME280;41383;51.418;7.286;2023-03-14T03:03:59;97354.06;;;9.64;87.69
55538;BME280;41383;51.418;7.286;2023-03-14T03:06:25;97349.28;;;9.70;88.04
55538;BME280;41383;51.418;7.286;2023-03-14T03:08:50;97353.75;;;9.75;87.19
55538;BME280;41383;51.418;7.286;2023-03-14T03:11:16;97344.47;;;9.67;87.57
55538;BME280;41383;51.418;7.286;2023-03-14T03:13:41;97344.94;;;9.60;87.48
55538;BME280;41383;51.418;7.286;2023-03-14T03:16:06;97335.50;;;9.57;87.70
55538;BME280;41383;51.418;7.286;2023-03-14T03:18:35;97342.88;;;9.66;87.31
55538;BME280;41383;51.418;7.286;2023-03-14T03:21:02;97336.13;;;9.54;87.39
55538;BME280;41383;51.418;7.286;2023-03-14T03:23:28;97336.63;;;9.56;87.64
55538;BME280;41383;51.418;7.286;2023-03-14T03:25:53;97338.72;;;9.60;87.50
55538;BME280;41383;51.418;7.286;2023-03-14T03:28:19;97325.13;;;9.60;87.62
55538;BME280;41383;51.418;7.286;2023-03-14T03:30:45;97323.97;;;9.61;87.30
55538;BME280;41383;51.418;7.286;2023-03-14T03:33:11;97321.28;;;9.69;86.97
55538;BME280;41383;51.418;7.286;2023-03-14T03:35:44;97311.84;;;9.76;86.75
55538;BME280;41383;51.418;7.286;2023-03-14T03:38:10;97318.22;;;9.71;86.69
55538;BME280;41383;51.418;7.286;2023-03-14T03:40:36;97323.03;;;9.65;86.46
55538;BME280;41383;51.418;7.286;2023-03-14T03:43:02;97332.16;;;9.69;86.68
55538;BME280;41383;51.418;7.286;2023-03-14T03:45:29;97327.03;;;9.68;86.42
55538;BME280;41383;51.418;7.286;2023-03-14T03:47:54;97330.06;;;9.66;86.32
55538;BME280;41383;51.418;7.286;2023-03-14T03:50:19;97327.03;;;9.77;86.60
55538;BME280;41383;51.418;7.286;2023-03-14T03:52:45;97320.97;;;9.80;86.85
55538;BME280;41383;51.418;7.286;2023-03-14T03:55:10;97325.44;;;9.67;87.19
55538;BME280;41383;51.418;7.286;2023-03-14T03:57:35;97328.16;;;9.67;87.82
55538;BME280;41383;51.418;7.286;2023-03-14T04:00:00;97328.31;;;9.71;88.16
55538;BME280;41383;51.418;7.286;2023-03-14T04:02:26;97331.19;;;9.56;87.72
55538;BME280;41383;51.418;7.286;2023-03-14T04:04:51;97319.03;;;9.54;88.92
55538;BME280;41383;51.418;7.286;2023-03-14T04:07:16;97318.69;;;9.46;89.18
55538;BME280;41383;51.418;7.286;2023-03-14T04:09:41;97314.38;;;9.45;89.55
55538;BME280;41383;51.418;7.286;2023-03-14T04:12:07;97325.22;;;9.37;89.23
55538;BME280;41383;51.418;7.286;2023-03-14T04:14:32;97318.84;;;9.41;89.74
55538;BME280;41383;51.418;7.286;2023-03-14T04:16:57;97318.13;;;9.18;88.96
55538;BME280;41383;51.418;7.286;2023-03-14T04:19:22;97320.72;;;9.32;89.11
55538;BME280;41383;51.418;7.286;2023-03-14T04:21:48;97297.22;;;9.27;89.74
55538;BME280;41383;51.418;7.286;2023-03-14T04:24:13;97320.88;;;9.27;89.92
55538;BME280;41383;51.418;7.286;2023-03-14T04:26:39;97314.31;;;9.19;90.14
55538;BME280;41383;51.418;7.286;2023-03-14T04:29:04;97316.06;;;9.15;90.46
55538;BME280;41383;51.418;7.286;2023-03-14T04:31:30;97305.34;;;9.18;90.73
55538;BME280;41383;51.418;7.286;2023-03-14T04:33:55;97318.94;;;9.18;90.22
55538;BME280;41383;51.418;7.286;2023-03-14T04:36:20;97327.41;;;9.17;90.19
55538;BME280;41383;51.418;7.286;2023-03-14T04:38:45;97321.66;;;9.18;91.41
55538;BME280;41383;51.418;7.286;2023-03-14T04:41:11;97320.19;;;9.12;92.63
55538;BME280;41383;51.418;7.286;2023-03-14T04:43:36;97324.22;;;9.23;92.51
55538;BME280;41383;51.418;7.286;2023-03-14T04:46:01;97313.09;;;9.43;91.23
55538;BME280;41383;51.418;7.286;2023-03-14T04:48:27;97298.22;;;9.58;90.88
55538;BME280;41383;51.418;7.286;2023-03-14T04:50:52;97288.47;;;9.66;90.40
55538;BME280;41383;51.418;7.286;2023-03-14T04:53:18;97286.38;;;9.72;90.38
55538;BME280;41383;51.418;7.286;2023-03-14T04:55:51;97272.00;;;9.80;89.87
55538;BME280;41383;51.418;7.286;2023-03-14T04:58:18;97279.34;;;9.88;89.37
55538;BME280;41383;51.418;7.286;2023-03-14T05:00:44;97281.75;;;9.90;89.42
55538;BME280;41383;51.418;7.286;2023-03-14T05:03:09;97284.00;;;9.88;89.50
55538;BME280;41383;51.418;7.286;2023-03-14T05:05:34;97282.06;;;9.97;89.22
55538;BME280;41383;51.418;7.286;2023-03-14T05:07:59;97284.91;;;10.01;89.07
55538;BME280;41383;51.418;7.286;2023-03-14T05:10:25;97292.13;;;9.97;88.53
55538;BME280;41383;51.418;7.286;2023-03-14T05:12:50;97298.06;;;9.90;89.85
55538;BME280;41383;51.418;7.286;2023-03-14T05:15:16;97290.22;;;9.53;91.02
55538;BME280;41383;51.418;7.286;2023-03-14T05:17:41;97290.22;;;9.53;92.16
55538;BME280;41383;51.418;7.286;2023-03-14T05:20:07;97286.38;;;9.72;91.36
55538;BME280;41383;51.418;7.286;2023-03-14T05:22:34;97282.22;;;9.65;90.97
55538;BME280;41383;51.418;7.286;2023-03-14T05:24:59;97268.28;;;9.67;91.18
55538;BME280;41383;51.418;7.286;2023-03-14T05:27:24;97257.56;;;9.35;92.35
55538;BME280;41383;51.418;7.286;2023-03-14T05:29:50;97253.56;;;9.41;91.35
55538;BME280;41383;51.418;7.286;2023-03-14T05:32:15;97257.56;;;9.35;92.70
55538;BME280;41383;51.418;7.286;2023-03-14T05:34:40;97257.25;;;9.45;92.17
55538;BME280;41383;51.418;7.286;2023-03-14T05:37:06;97249.59;;;9.48;91.64
55538;BME280;41383;51.418;7.286;2023-03-14T05:39:32;97258.50;;;9.21;92.61
55538;BME280;41383;51.418;7.286;2023-03-14T05:41:57;97235.50;;;9.45;92.42
55538;BME280;41383;51.418;7.286;2023-03-14T05:44:22;97238.84;;;9.60;91.48
55538;BME280;41383;51.418;7.286;2023-03-14T05:46:48;97225.41;;;9.55;91.90
55538;BME280;41383;51.418;7.286;2023-03-14T05:49:13;97229.09;;;9.59;91.97
55538;BME280;41383;51.418;7.286;2023-03-14T05:51:38;97223.16;;;9.48;92.50
55538;BME280;41383;51.418;7.286;2023-03-14T05:54:04;97219.50;;;9.35;93.03
55538;BME280;41383;51.418;7.286;2023-03-14T05:56:29;97230.38;;;9.35;93.32
55538;BME280;41383;51.418;7.286;2023-03-14T05:58:54;97216.13;;;9.29;94.18
55538;BME280;41383;51.418;7.286;2023-03-14T06:01:19;97220.78;;;9.29;94.13
55538;BME280;41383;51.418;7.286;2023-03-14T06:03:44;97228.91;;;9.20;94.61
55538;BME280;41383;51.418;7.286;2023-03-14T06:06:10;97219.16;;;9.10;95.51
55538;BME280;41383;51.418;7.286;2023-03-14T06:08:35;97216.59;;;9.22;95.52
55538;BME280;41383;51.418;7.286;2023-03-14T06:11:02;97202.53;;;9.20;95.38
55538;BME280;41383;51.418;7.286;2023-03-14T06:13:28;97222.66;;;9.19;95.13
55538;BME280;41383;51.418;7.286;2023-03-14T06:15:53;97210.69;;;9.20;95.43
55538;BME280;41383;51.418;7.286;2023-03-14T06:18:18;97223.97;;;9.13;95.46
55538;BME280;41383;51.418;7.286;2023-03-14T06:20:43;97224.25;;;9.03;95.96
55538;BME280;41383;51.418;7.286;2023-03-14T06:23:09;97221.06;;;9.18;95.56
55538;BME280;41383;51.418;7.286;2023-03-14T06:25:35;97230.81;;;9.19;95.97
55538;BME280;41383;51.418;7.286;2023-03-14T06:28:00;97228.59;;;9.30;95.15
55538;BME280;41383;51.418;7.286;2023-03-14T06:30:26;97227.50;;;9.31;95.26
55538;BME280;41383;51.418;7.286;2023-03-14T06:32:51;97236.63;;;9.36;94.49
55538;BME280;41383;51.418;7.286;2023-03-14T06:35:16;97239.47;;;9.30;94.22
55538;BME280;41383;51.418;7.286;2023-03-14T06:37:42;97233.09;;;9.35;94.65
55538;BME280;41383;51.418;7.286;2023-03-14T06:40:09;97238.03;;;9.24;94.93
55538;BME280;41383;51.418;7.286;2023-03-14T06:42:35;97240.78;;;9.33;94.70
55538;BME280;41383;51.418;7.286;2023-03-14T06:45:01;97241.88;;;9.32;94.52
55538;BME280;41383;51.418;7.286;2023-03-14T06:47:27;97243.78;;;9.22;94.77
55538;BME280;41383;51.418;7.286;2023-03-14T06:49:52;97240.59;;;9.20;95.01
55538;BME280;41383;51.418;7.286;2023-03-14T06:52:17;97241.22;;;9.26;94.92
55538;BME280;41383;51.418;7.286;2023-03-14T06:54:43;97244.91;;;9.30;95.30
55538;BME280;41383;51.418;7.286;2023-03-14T06:57:08;97243.97;;;9.35;94.99
55538;BME280;41383;51.418;7.286;2023-03-14T06:59:33;97244.75;;;9.27;94.87
55538;BME280;41383;51.418;7.286;2023-03-14T07:01:58;97248.44;;;9.40;94.93
55538;BME280;41383;51.418;7.286;2023-03-14T07:04:24;97240.59;;;9.56;94.51
55538;BME280;41383;51.418;7.286;2023-03-14T07:06:49;97235.47;;;9.28;94.68
55538;BME280;41383;51.418;7.286;2023-03-14T07:09:15;97238.38;;;9.40;95.00
55538;BME280;41383;51.418;7.286;2023-03-14T07:11:42;97241.91;;;9.50;94.50
55538;BME280;41383;51.418;7.286;2023-03-14T07:14:07;97238.22;;;9.63;93.65
55538;BME280;41383;51.418;7.286;2023-03-14T07:16:32;97248.31;;;9.72;93.33
55538;BME280;41383;51.418;7.286;2023-03-14T07:18:59;97241.72;;;9.81;93.03
55538;BME280;41383;51.418;7.286;2023-03-14T07:21:24;97249.06;;;9.99;92.72
55538;BME280;41383;51.418;7.286;2023-03-14T07:23:49;97246.22;;;9.77;93.37
55538;BME280;41383;51.418;7.286;2023-03-14T07:26:15;97243.50;;;9.86;92.26
55538;BME280;41383;51.418;7.286;2023-03-14T07:28:40;97242.22;;;9.75;92.30
55538;BME280;41383;51.418;7.286;2023-03-14T07:31:06;97250.84;;;9.77;92.53
55538;BME280;41383;51.418;7.286;2023-03-14T07:33:32;97243.50;;;9.51;93.71
55538;BME280;41383;51.418;7.286;2023-03-14T07:35:57;97259.50;;;9.61;94.43
55538;BME280;41383;51.418;7.286;2023-03-14T07:38:23;97250.84;;;9.59;92.94
55538;BME280;41383;51.418;7.286;2023-03-14T07:40:48;97251.50;;;9.74;93.60
55538;BME280;41383;51.418;7.286;2023-03-14T07:43:13;97250.03;;;9.76;92.79
55538;BME280;41383;51.418;7.286;2023-03-14T07:45:39;97256.94;;;9.91;92.33
55538;BME280;41383;51.418;7.286;2023-03-14T07:48:04;97265.59;;;9.76;92.36
55538;BME280;41383;51.418;7.286;2023-03-14T07:50:29;97265.09;;;9.91;92.88
55538;BME280;41383;51.418;7.286;2023-03-14T07:52:55;97253.25;;;9.87;93.35
55538;BME280;41383;51.418;7.286;2023-03-14T07:55:20;97264.13;;;9.78;93.89
55538;BME280;41383;51.418;7.286;2023-03-14T07:57:45;97258.06;;;9.81;94.49
55538;BME280;41383;51.418;7.286;2023-03-14T08:00:11;97268.78;;;9.96;94.46
55538;BME280;41383;51.418;7.286;2023-03-14T08:02:39;97259.78;;;10.04;93.93
55538;BME280;41383;51.418;7.286;2023-03-14T08:05:04;97260.75;;;10.08;93.16
55538;BME280;41383;51.418;7.286;2023-03-14T08:07:29;97267.94;;;10.13;93.37
55538;BME280;41383;51.418;7.286;2023-03-14T08:09:55;97264.88;;;10.23;92.85
55538;BME280;41383;51.418;7.286;2023-03-14T08:12:20;97263.66;;;9.94;93.21
55538;BME280;41383;51.418;7.286;2023-03-14T08:14:45;97262.22;;;9.88;93.55
55538;BME280;41383;51.418;7.286;2023-03-14T08:17:11;97265.09;;;9.74;95.12
55538;BME280;41383;51.418;7.286;2023-03-14T08:19:36;97266.03;;;9.96;94.81
55538;BME280;41383;51.418;7.286;2023-03-14T08:22:01;97263.28;;;10.13;94.50
55538;BME280;41383;51.418;7.286;2023-03-14T08:24:27;97261.19;;;10.19;94.31
55538;BME280;41383;51.418;7.286;2023-03-14T08:26:52;97268.72;;;10.31;93.82
55538;BME280;41383;51.418;7.286;2023-03-14T08:29:18;97268.53;;;10.36;93.26
55538;BME280;41383;51.418;7.286;2023-03-14T08:31:43;97258.94;;;10.39;92.74
55538;BME280;41383;51.418;7.286;2023-03-14T08:34:09;97272.03;;;10.46;92.64
55538;BME280;41383;51.418;7.286;2023-03-14T08:36:34;97272.84;;;10.37;92.58
55538;BME280;41383;51.418;7.286;2023-03-14T08:39:00;97267.91;;;10.22;93.27
55538;BME280;41383;51.418;7.286;2023-03-14T08:41:25;97268.72;;;10.31;93.53
55538;BME280;41383;51.418;7.286;2023-03-14T08:43:50;97275.78;;;10.14;93.95
55538;BME280;41383;51.418;7.286;2023-03-14T08:46:15;97277.03;;;10.26;93.51
55538;BME280;41383;51.418;7.286;2023-03-14T08:48:41;97273.69;;;10.29;93.30
55538;BME280;41383;51.418;7.286;2023-03-14T08:51:07;97277.03;;;10.26;93.19
55538;BME280;41383;51.418;7.286;2023-03-14T08:53:33;97282.00;;;10.33;93.31
55538;BME280;41383;51.418;7.286;2023-03-14T08:55:58;97279.25;;;10.42;93.54
55538;BME280;41383;51.418;7.286;2023-03-14T08:58:24;97284.22;;;10.57;92.93
55538;BME280;41383;51.418;7.286;2023-03-14T09:00:49;97281.50;;;10.39;92.42
55538;BME280;41383;51.418;7.286;2023-03-14T09:03:15;97282.78;;;10.42;93.42
55538;BME280;41383;51.418;7.286;2023-03-14T09:05:40;97283.38;;;10.66;92.80
55538;BME280;41383;51.418;7.286;2023-03-14T09:08:05;97284.25;;;10.88;91.82
55538;BME280;41383;51.418;7.286;2023-03-14T09:10:30;97280.13;;;10.81;91.14
55538;BME280;41383;51.418;7.286;2023-03-14T09:12:56;97280.28;;;10.76;91.36
55538;BME280;41383;51.418;7.286;2023-03-14T09:15:23;97292.03;;;10.68;92.02
55538;BME280;41383;51.418;7.286;2023-03-14T09:17:48;97293.25;;;10.79;91.98
55538;BME280;41383;51.418;7.286;2023-03-14T09:20:13;97298.41;;;10.72;92.17
55538;BME280;41383;51.418;7.286;2023-03-14T09:22:39;97310.91;;;10.73;92.20
55538;BME280;41383;51.418;7.286;2023-03-14T09:25:05;97322.50;;;10.70;92.71
55538;BME280;41383;51.418;7.286;2023-03-14T09:27:31;97331.97;;;10.55;93.66
55538;BME280;41383;51.418;7.286;2023-03-14T09:29:56;97334.50;;;10.60;93.59
55538;BME280;41383;51.418;7.286;2023-03-14T09:32:21;97332.25;;;10.62;93.72
55538;BME280;41383;51.418;7.286;2023-03-14T09:34:46;97344.47;;;10.56;93.93
55538;BME280;41383;51.418;7.286;2023-03-14T09:37:12;97344.78;;;10.45;94.84
55538;BME280;41383;51.418;7.286;2023-03-14T09:39:37;97354.56;;;10.46;95.10
55538;BME280;41383;51.418;7.286;2023-03-14T09:42:05;97365.47;;;10.28;95.66
55538;BME280;41383;51.418;7.286;2023-03-14T09:44:35;97372.19;;;10.13;96.55
55538;BME280;41383;51.418;7.286;2023-03-14T09:47:05;97418.78;;;9.94;95.65
55538;BME280;41383;51.418;7.286;2023-03-14T09:49:36;97425.63;;;9.74;93.60
55538;BME280;41383;51.418;7.286;2023-03-14T09:52:11;97437.34;;;9.83;92.74
55538;BME280;41383;51.418;7.286;2023-03-14T09:54:45;97445.78;;;9.73;90.71
55538;BME280;41383;51.418;7.286;2023-03-14T09:57:14;97454.41;;;9.57;89.97
55538;BME280;41383;51.418;7.286;2023-03-14T09:59:43;97460.00;;;9.52;89.70
55538;BME280;41383;51.418;7.286;2023-03-14T10:02:20;97472.31;;;9.58;89.44
55538;BME280;41383;51.418;7.286;2023-03-14T10:04:47;97474.53;;;9.56;89.65
55538;BME280;41383;51.418;7.286;2023-03-14T10:07:30;97492.84;;;9.32;88.56
55538;BME280;41383;51.418;7.286;2023-03-14T10:09:57;97512.53;;;9.38;89.62
55538;BME280;41383;51.418;7.286;2023-03-14T10:12:34;97522.09;;;9.27;88.85
55538;BME280;41383;51.418;7.286;2023-03-14T10:15:09;97534.44;;;8.87;89.85
55538;BME280;41383;51.418;7.286;2023-03-14T10:17:42;97547.03;;;8.83;90.96
55538;BME280;41383;51.418;7.286;2023-03-14T10:20:38;97560.41;;;9.16;90.13
55538;BME280;41383;51.418;7.286;2023-03-14T10:23:06;97561.78;;;9.05;89.65
55538;BME280;41383;51.418;7.286;2023-03-14T10:25:34;97570.78;;;9.37;89.53
55538;BME280;41383;51.418;7.286;2023-03-14T10:28:02;97575.66;;;9.26;88.32
55538;BME280;41383;51.418;7.286;2023-03-14T10:32:56;97580.41;;;9.43;88.31
55538;BME280;41383;51.418;7.286;2023-03-14T10:35:22;97600.81;;;9.09;87.88
55538;BME280;41383;51.418;7.286;2023-03-14T10:37:51;97598.59;;;9.34;86.82
55538;BME280;41383;51.418;7.286;2023-03-14T10:40:20;97622.22;;;9.48;86.94
55538;BME280;41383;51.418;7.286;2023-03-14T10:42:49;97632.31;;;9.56;86.37
55538;BME280;41383;51.418;7.286;2023-03-14T10:47:59;97658.47;;;9.43;86.58
55538;BME280;41383;51.418;7.286;2023-03-14T10:50:31;97660.31;;;9.10;87.94
55538;BME280;41383;51.418;7.286;2023-03-14T10:52:57;97681.31;;;8.82;87.27
55538;BME280;41383;51.418;7.286;2023-03-14T10:55:26;97702.03;;;8.49;88.79
55538;BME280;41383;51.418;7.286;2023-03-14T10:57:52;97721.19;;;8.72;89.33
55538;BME280;41383;51.418;7.286;2023-03-14T11:00:20;97729.00;;;8.88;87.52
55538;BME280;41383;51.418;7.286;2023-03-14T11:06:14;97747.41;;;8.77;86.16
55538;BME280;41383;51.418;7.286;2023-03-14T11:08:45;97763.53;;;8.73;85.97
55538;BME280;41383;51.418;7.286;2023-03-14T11:11:23;97794.00;;;8.56;85.51
55538;BME280;41383;51.418;7.286;2023-03-14T11:16:56;97812.63;;;8.91;84.41
55538;BME280;41383;51.418;7.286;2023-03-14T11:22:28;97855.63;;;8.22;83.24
55538;BME280;41383;51.418;7.286;2023-03-14T11:25:12;97869.16;;;8.27;82.84
55538;BME280;41383;51.418;7.286;2023-03-14T11:27:44;97884.81;;;8.50;82.25
55538;BME280;41383;51.418;7.286;2023-03-14T11:35:20;97883.88;;;8.74;78.68
55538;BME280;41383;51.418;7.286;2023-03-14T11:37:53;97902.13;;;9.02;79.05
55538;BME280;41383;51.418;7.286;2023-03-14T11:40:23;97911.88;;;8.55;77.81
55538;BME280;41383;51.418;7.286;2023-03-14T11:43:00;97926.28;;;8.56;76.37
55538;BME280;41383;51.418;7.286;2023-03-14T11:45:38;97940.81;;;8.65;76.63
55538;BME280;41383;51.418;7.286;2023-03-14T11:50:43;97962.53;;;8.26;75.76
55538;BME280;41383;51.418;7.286;2023-03-14T11:53:19;97979.34;;;8.67;75.98
55538;BME280;41383;51.418;7.286;2023-03-14T11:55:46;97972.50;;;8.50;74.42
55538;BME280;41383;51.418;7.286;2023-03-14T11:58:35;97973.09;;;8.09;74.17
55538;BME280;41383;51.418;7.286;2023-03-14T12:01:09;97978.47;;;8.33;75.32
55538;BME280;41383;51.418;7.286;2023-03-14T12:03:46;97982.84;;;7.90;73.56
55538;BME280;41383;51.418;7.286;2023-03-14T12:06:32;97997.97;;;8.16;75.07
55538;BME280;41383;51.418;7.286;2023-03-14T12:09:04;98006.72;;;8.32;74.16
55538;BME280;41383;51.418;7.286;2023-03-14T12:11:47;98016.13;;;8.40;74.92
55538;BME280;41383;51.418;7.286;2023-03-14T12:14:25;98028.78;;;7.81;74.57
55538;BME280;41383;51.418;7.286;2023-03-14T12:17:06;98047.88;;;7.71;76.07
55538;BME280;41383;51.418;7.286;2023-03-14T12:19:35;98050.28;;;7.78;76.26
55538;BME280;41383;51.418;7.286;2023-03-14T12:27:49;98065.78;;;7.72;75.65
55538;BME280;41383;51.418;7.286;2023-03-14T12:30:30;98093.06;;;7.86;76.22
55538;BME280;41383;51.418;7.286;2023-03-14T12:35:48;98106.66;;;8.30;75.32
55538;BME280;41383;51.418;7.286;2023-03-14T12:38:37;98112.88;;;8.36;75.65
55538;BME280;41383;51.418;7.286;2023-03-14T12:41:19;98121.88;;;8.75;74.36
55538;BME280;41383;51.418;7.286;2023-03-14T12:43:46;98129.69;;;8.82;74.43
55538;BME280;41383;51.418;7.286;2023-03-14T12:49:03;98128.34;;;8.60;73.63
55538;BME280;41383;51.418;7.286;2023-03-14T12:51:38;98135.50;;;8.94;74.35
55538;BME280;41383;51.418;7.286;2023-03-14T12:56:50;98150.59;;;9.39;73.50
55538;BME280;41383;51.418;7.286;2023-03-14T13:01:59;98160.75;;;9.67;72.38
55538;BME280;41383;51.418;7.286;2023-03-14T13:04:30;98171.28;;;9.54;71.64
55538;BME280;41383;51.418;7.286;2023-03-14T13:06:58;98177.00;;;9.00;72.19
55538;BME280;41383;51.418;7.286;2023-03-14T13:12:00;98193.22;;;8.86;72.78
55538;BME280;41383;51.418;7.286;2023-03-14T13:14:29;98209.09;;;8.79;73.96
55538;BME280;41383;51.418;7.286;2023-03-14T13:16:55;98224.19;;;8.36;76.16
55538;BME280;41383;51.418;7.286;2023-03-14T13:19:26;98239.06;;;7.44;76.40
55538;BME280;41383;51.418;7.286;2023-03-14T13:22:04;98251.16;;;7.17;77.47
55538;BME280;41383;51.418;7.286;2023-03-14T13:24:33;98258.41;;;7.32;79.88
55538;BME280;41383;51.418;7.286;2023-03-14T13:26:59;98256.94;;;6.99;79.32
55538;BME280;41383;51.418;7.286;2023-03-14T13:29:27;98275.53;;;7.22;79.46
55538;BME280;41383;51.418;7.286;2023-03-14T13:31:56;98279.06;;;7.68;78.39
55538;BME280;41383;51.418;7.286;2023-03-14T13:34:25;98286.00;;;7.85;78.60
55538;BME280;41383;51.418;7.286;2023-03-14T13:36:54;98291.50;;;8.09;77.27
55538;BME280;41383;51.418;7.286;2023-03-14T13:39:21;98301.22;;;8.15;76.59
55538;BME280;41383;51.418;7.286;2023-03-14T13:41:50;98308.19;;;8.27;75.79
55538;BME280;41383;51.418;7.286;2023-03-14T13:44:18;98315.66;;;8.11;76.89
55538;BME280;41383;51.418;7.286;2023-03-14T13:46:48;98320.41;;;7.89;77.50
55538;BME280;41383;51.418;7.286;2023-03-14T13:49:21;98313.22;;;7.69;77.11
55538;BME280;41383;51.418;7.286;2023-03-14T13:51:47;98326.56;;;7.60;77.55
55538;BME280;41383;51.418;7.286;2023-03-14T13:54:15;98341.44;;;7.68;78.88
55538;BME280;41383;51.418;7.286;2023-03-14T13:56:40;98337.44;;;8.00;78.25